Time;durP1;ratioP1;P1;durP2;ratioP2;P2;SDS_P1;SDS_P2;PMS_P1;PMS_P2;Temp;Humidity;BMP_temperature;BMP_pressure;BME280_temperature;BME280_humidity;BME280_pressure;Samples;Min_cycle;Max_cycle;Signal;HPM_P1;HPM_P2
2023/05/16 00:00:52;;;;;;;23.67;15.88;;;;;;;10.66;100.00;96960.44;5052520;28;20044;-60
2023/05/16 00:03:19;;;;;;;21.45;15.65;;;;;;;10.53;100.00;96950.88;5058629;28;20052;-61
2023/05/16 00:05:46;;;;;;;21.15;15.38;;;;;;;10.48;100.00;96953.53;5043434;28;20076;-60
2023/05/16 00:08:13;;;;;;;21.58;15.35;;;;;;;10.40;100.00;96955.63;5040044;28;20048;-60
2023/05/16 00:10:39;;;;;;;20.80;14.77;;;;;;;10.38;100.00;96951.56;5044584;28;20098;-60
2023/05/16 00:13:06;;;;;;;19.98;14.45;;;;;;;10.34;100.00;96951.28;5046218;28;20041;-60
2023/05/16 00:15:33;;;;;;;21.33;15.48;;;;;;;10.31;100.00;96945.59;5046122;28;20049;-60
2023/05/16 00:18:00;;;;;;;21.10;15.15;;;;;;;10.41;100.00;96956.47;5046005;28;20119;-60
2023/05/16 00:20:27;;;;;;;20.73;14.63;;;;;;;10.46;100.00;96944.88;5047754;28;20044;-60
2023/05/16 00:22:54;;;;;;;18.65;14.50;;;;;;;10.45;100.00;96941.34;5052428;28;20059;-60
2023/05/16 00:25:21;;;;;;;24.80;16.13;;;;;;;10.49;100.00;96944.34;5047169;28;20075;-60
2023/05/16 00:27:48;;;;;;;22.67;15.60;;;;;;;10.48;100.00;96937.31;5049567;28;20045;-60
2023/05/16 00:30:15;;;;;;;21.30;16.17;;;;;;;10.41;100.00;96940.22;5044487;28;20131;-60
2023/05/16 00:32:42;;;;;;;24.73;17.05;;;;;;;10.39;100.00;96936.94;5061100;28;20069;-60
2023/05/16 00:35:10;;;;;;;23.38;17.27;;;;;;;10.32;100.00;96936.38;5042028;28;20083;-60
2023/05/16 00:37:38;;;;;;;28.77;19.23;;;;;;;10.24;100.00;96933.06;5054302;28;20111;-59
2023/05/16 00:40:05;;;;;;;28.95;18.10;;;;;;;10.28;100.00;96939.59;5043793;28;20091;-60
2023/05/16 00:42:32;;;;;;;27.27;19.02;;;;;;;10.25;100.00;96934.69;5047566;28;20084;-60
2023/05/16 00:44:59;;;;;;;29.52;19.27;;;;;;;10.20;100.00;96941.97;5061488;28;20099;-60
2023/05/16 00:47:27;;;;;;;31.42;19.95;;;;;;;10.13;100.00;96934.06;5059339;28;20049;-60
2023/05/16 00:49:53;;;;;;;28.73;19.85;;;;;;;10.14;100.00;96935.72;5053486;28;20041;-60
2023/05/16 00:52:20;;;;;;;34.67;19.77;;;;;;;10.18;100.00;96936.84;5051950;28;20056;-62
2023/05/16 00:54:47;;;;;;;32.45;20.25;;;;;;;10.24;100.00;96935.78;5050265;28;20139;-60
2023/05/16 00:57:15;;;;;;;31.73;20.55;;;;;;;10.18;100.00;96947.66;5050406;28;20524;-60
2023/05/16 00:59:45;;;;;;;32.88;20.42;;;;;;;10.13;100.00;96942.19;5042384;28;20577;-61
2023/05/16 01:02:13;;;;;;;29.35;20.60;;;;;;;10.05;100.00;96945.38;5045952;28;20240;-61
2023/05/16 01:04:40;;;;;;;34.55;20.33;;;;;;;9.92;100.00;96947.47;5047343;28;20091;-60
2023/05/16 01:07:06;;;;;;;33.47;21.23;;;;;;;9.94;100.00;96956.13;5038099;28;20082;-60
2023/05/16 01:09:34;;;;;;;35.70;22.20;;;;;;;9.87;100.00;96956.34;5054767;28;20047;-61
2023/05/16 01:12:09;;;;;;;33.47;22.48;;;;;;;9.80;100.00;96947.63;5046950;28;20140;-60
2023/05/16 01:14:52;;;;;;;34.47;21.25;;;;;;;9.91;100.00;96950.44;5044957;28;20098;-60
2023/05/16 01:17:35;;;;;;;37.22;22.67;;;;;;;9.87;100.00;96948.22;5061689;28;20555;-61
2023/05/16 01:20:14;;;;;;;32.70;22.33;;;;;;;9.96;100.00;96948.59;5051471;28;20090;-60
2023/05/16 01:23:29;;;;;;;38.17;22.05;;;;;;;9.95;100.00;96941.53;5048421;28;20075;-60
2023/05/16 01:26:15;;;;;;;35.78;23.17;;;;;;;9.95;100.00;96948.84;5042395;28;20115;-60
2023/05/16 01:28:45;;;;;;;39.45;23.50;;;;;;;9.99;100.00;96945.34;5033605;28;20052;-60
2023/05/16 01:31:11;;;;;;;36.88;23.95;;;;;;;10.02;100.00;96944.84;5050297;28;20041;-60
2023/05/16 01:33:38;;;;;;;38.78;24.17;;;;;;;9.87;100.00;96953.63;5045837;28;20048;-60
2023/05/16 01:36:38;;;;;;;44.55;23.90;;;;;;;9.92;100.00;96952.03;5052236;28;20562;-60
2023/05/16 01:39:21;;;;;;;40.22;23.40;;;;;;;9.86;100.00;96945.78;5043712;28;20077;-61
2023/05/16 01:42:05;;;;;;;42.35;25.83;;;;;;;9.88;100.00;96944.44;5044190;28;20110;-60
2023/05/16 01:44:44;;;;;;;39.85;23.98;;;;;;;9.89;100.00;96951.47;5046227;28;20072;-60
2023/05/16 01:47:12;;;;;;;41.03;24.42;;;;;;;9.94;100.00;96948.00;5050511;28;20047;-60
2023/05/16 01:50:08;;;;;;;44.72;25.52;;;;;;;10.01;100.00;96937.78;5043134;28;20076;-60
2023/05/16 01:52:44;;;;;;;43.88;24.98;;;;;;;10.10;100.00;96948.94;5040333;28;20045;-61
2023/05/16 01:55:17;;;;;;;41.95;23.65;;;;;;;10.02;100.00;96939.41;5045899;28;20498;-61
2023/05/16 01:57:44;;;;;;;43.95;26.15;;;;;;;10.04;100.00;96946.44;5047804;28;20049;-61
2023/05/16 02:00:12;;;;;;;42.83;25.55;;;;;;;10.01;100.00;96943.22;5044707;28;20040;-61
2023/05/16 02:02:41;;;;;;;38.97;23.20;;;;;;;10.01;100.00;96945.91;5052997;28;20098;-60
2023/05/16 02:05:08;;;;;;;40.20;24.23;;;;;;;10.06;100.00;96952.44;5051113;28;20037;-61
2023/05/16 02:07:35;;;;;;;40.05;24.58;;;;;;;10.00;100.00;96952.38;5049784;28;20141;-61
2023/05/16 02:10:02;;;;;;;41.47;24.25;;;;;;;10.04;100.00;96951.88;5050636;28;20047;-60
2023/05/16 02:12:28;;;;;;;43.17;26.42;;;;;;;9.86;100.00;96959.28;5050061;28;20094;-61
2023/05/16 02:14:55;;;;;;;45.88;25.35;;;;;;;9.87;100.00;96950.94;5050702;28;20087;-60
2023/05/16 02:17:21;;;;;;;44.67;25.98;;;;;;;9.81;100.00;96957.38;5046962;28;20049;-61
2023/05/16 02:19:48;;;;;;;44.00;25.17;;;;;;;9.87;100.00;96953.63;5048699;28;20722;-60
2023/05/16 02:22:14;;;;;;;47.72;27.40;;;;;;;9.91;100.00;96964.75;5050946;28;20099;-60
2023/05/16 02:24:41;;;;;;;49.00;27.52;;;;;;;9.94;100.00;96966.13;5044866;28;20041;-60
2023/05/16 02:27:07;;;;;;;52.85;28.73;;;;;;;9.92;100.00;96962.88;5046085;28;20467;-61
2023/05/16 02:29:33;;;;;;;49.55;26.77;;;;;;;9.96;100.00;96958.56;5036481;28;20064;-61
2023/05/16 02:32:00;;;;;;;53.53;29.33;;;;;;;9.99;100.00;96966.19;5051515;28;20049;-61
2023/05/16 02:34:27;;;;;;;51.42;28.98;;;;;;;10.06;100.00;96963.25;5050733;28;20081;-60
2023/05/16 02:36:54;;;;;;;53.38;29.98;;;;;;;10.01;100.00;96966.72;5059080;28;20044;-60
2023/05/16 02:39:20;;;;;;;50.55;29.15;;;;;;;10.04;100.00;96965.38;5045707;28;20121;-61
2023/05/16 02:41:49;;;;;;;52.75;27.80;;;;;;;9.96;100.00;96970.22;5044138;28;20052;-60
2023/05/16 02:44:16;;;;;;;51.25;28.45;;;;;;;10.08;100.00;96972.75;5044440;28;20048;-60
2023/05/16 02:46:42;;;;;;;53.08;28.42;;;;;;;10.08;100.00;96969.22;5043403;28;20056;-61
2023/05/16 02:49:09;;;;;;;50.13;28.08;;;;;;;9.97;100.00;96965.59;5042098;28;20049;-61
2023/05/16 02:51:37;;;;;;;49.08;27.52;;;;;;;9.86;100.00;96970.13;5043634;28;20052;-60
2023/05/16 02:54:04;;;;;;;58.78;32.25;;;;;;;9.82;100.00;96967.13;5043855;28;20041;-60
2023/05/16 02:56:30;;;;;;;58.15;30.90;;;;;;;9.81;100.00;96967.38;5047149;28;20666;-60
2023/05/16 02:58:57;;;;;;;57.85;31.63;;;;;;;9.83;100.00;96968.75;5040918;28;20045;-61
2023/05/16 03:01:23;;;;;;;63.90;32.35;;;;;;;9.80;100.00;96966.53;5043895;28;20124;-60
2023/05/16 03:03:50;;;;;;;61.22;31.00;;;;;;;9.84;100.00;96972.28;5042778;28;20072;-60
2023/05/16 03:06:17;;;;;;;68.15;33.45;;;;;;;9.86;100.00;96973.66;5043250;28;20045;-60
2023/05/16 03:08:43;;;;;;;62.65;32.28;;;;;;;9.86;100.00;96976.34;5042670;28;20140;-61
2023/05/16 03:11:10;;;;;;;58.30;31.38;;;;;;;9.96;100.00;96974.81;5047501;28;20065;-61
2023/05/16 03:13:36;;;;;;;62.65;32.60;;;;;;;10.00;100.00;96979.41;5050233;28;20033;-60
2023/05/16 03:16:05;;;;;;;65.20;33.22;;;;;;;9.98;100.00;96980.75;5043148;28;20045;-61
2023/05/16 03:18:32;;;;;;;60.58;31.42;;;;;;;10.08;100.00;96974.63;5048165;28;20036;-61
2023/05/16 03:20:58;;;;;;;57.10;32.35;;;;;;;9.93;100.00;96981.53;5044677;28;20033;-61
2023/05/16 03:23:25;;;;;;;60.25;31.48;;;;;;;9.96;100.00;96985.63;5042711;28;20690;-61
2023/05/16 03:25:52;;;;;;;63.33;32.17;;;;;;;10.02;100.00;96971.06;5042220;28;20083;-61
2023/05/16 03:28:19;;;;;;;59.75;30.92;;;;;;;10.02;100.00;96981.88;5033056;28;20086;-61
2023/05/16 03:30:46;;;;;;;59.95;33.42;;;;;;;10.08;100.00;96977.31;5042671;28;20033;-61
2023/05/16 03:33:12;;;;;;;56.50;30.92;;;;;;;10.08;100.00;96978.16;5044961;28;20041;-61
2023/05/16 03:35:39;;;;;;;62.05;31.98;;;;;;;10.00;100.00;96981.31;5044618;28;20041;-61
2023/05/16 03:38:06;;;;;;;62.47;32.72;;;;;;;10.08;100.00;96980.84;5043171;28;20062;-61
2023/05/16 03:40:32;;;;;;;67.22;34.13;;;;;;;9.93;100.00;96978.84;5040421;28;20049;-61
2023/05/16 03:42:59;;;;;;;62.83;32.15;;;;;;;9.95;100.00;96982.09;5045202;28;20043;-61
2023/05/16 03:45:26;;;;;;;64.82;33.95;;;;;;;10.04;100.00;96979.75;5045552;28;20040;-61
2023/05/16 03:47:53;;;;;;;62.60;33.15;;;;;;;10.03;100.00;96983.53;5045833;28;20794;-61
2023/05/16 03:50:19;;;;;;;64.88;34.00;;;;;;;10.01;100.00;96986.47;5046802;28;20654;-61
2023/05/16 03:52:46;;;;;;;67.85;34.67;;;;;;;9.82;100.00;96986.03;5047664;28;20110;-61
2023/05/16 03:55:13;;;;;;;67.85;33.35;;;;;;;9.93;100.00;96986.94;5048240;28;20041;-61
2023/05/16 03:57:41;;;;;;;64.65;32.67;;;;;;;10.00;100.00;96984.03;5047601;28;20040;-61
2023/05/16 04:00:09;;;;;;;65.32;32.20;;;;;;;10.00;100.00;96987.53;5061003;28;20650;-61
2023/05/16 04:02:39;;;;;;;;;;;;;;;9.94;100.00;96985.03;5057801;28;20115;-61
2023/05/16 04:05:07;;;;;;;67.43;34.25;;;;;;;9.89;100.00;96989.34;5046435;28;19924;-61
2023/05/16 04:07:34;;;;;;;68.53;34.47;;;;;;;9.85;100.00;96982.00;5057214;28;20488;-60
2023/05/16 04:10:02;;;;;;;66.65;33.65;;;;;;;9.78;100.00;96992.22;5043603;28;20462;-61
2023/05/16 04:12:28;;;;;;;64.32;32.97;;;;;;;9.83;100.00;96986.84;5045044;28;20044;-60
2023/05/16 04:14:55;;;;;;;69.75;36.00;;;;;;;9.84;100.00;96992.00;5046197;28;20052;-61
2023/05/16 04:17:21;;;;;;;70.55;35.13;;;;;;;9.85;100.00;96990.91;5045861;28;20049;-61
2023/05/16 04:19:48;;;;;;;75.63;37.05;;;;;;;9.77;100.00;96988.72;5044788;28;20052;-61
2023/05/16 04:22:14;;;;;;;71.15;36.00;;;;;;;9.78;100.00;96990.34;5036472;28;20080;-61
2023/05/16 04:24:41;;;;;;;68.80;35.47;;;;;;;9.79;100.00;96991.97;5043692;28;20041;-61
2023/05/16 04:27:07;;;;;;;60.67;33.42;;;;;;;9.85;100.00;96995.53;5043785;28;20040;-61
2023/05/16 04:29:35;;;;;;;63.83;33.60;;;;;;;9.98;100.00;97000.50;5043192;28;20055;-62
2023/05/16 04:32:02;;;;;;;59.33;32.45;;;;;;;9.94;100.00;96991.28;5044568;28;20138;-62
2023/05/16 04:34:29;;;;;;;61.45;33.80;;;;;;;9.99;100.00;96995.94;5046387;28;20048;-62
2023/05/16 04:36:55;;;;;;;57.90;31.00;;;;;;;10.04;100.00;96992.44;5042081;28;20049;-62
2023/05/16 04:39:22;;;;;;;64.82;33.92;;;;;;;10.02;100.00;96996.22;5042173;28;20059;-62
2023/05/16 04:41:49;;;;;;;60.20;33.58;;;;;;;9.96;100.00;96997.25;5052925;28;20740;-61
2023/05/16 04:44:15;;;;;;;63.90;32.83;;;;;;;9.94;100.00;97003.97;5061528;28;20056;-62
2023/05/16 04:46:42;;;;;;;60.17;32.00;;;;;;;9.86;100.00;97002.56;5042596;28;20060;-62
2023/05/16 04:49:10;;;;;;;65.88;35.50;;;;;;;10.01;100.00;97012.69;5042184;28;20058;-62
2023/05/16 04:51:36;;;;;;;63.05;35.15;;;;;;;9.85;100.00;97007.16;5043058;28;20071;-61
2023/05/16 04:54:03;;;;;;;63.67;33.83;;;;;;;9.82;100.00;97009.56;5042284;28;20045;-61
2023/05/16 04:56:29;;;;;;;66.07;32.03;;;;;;;9.81;100.00;97019.56;5043435;28;20049;-61
2023/05/16 04:58:56;;;;;;;66.32;34.35;;;;;;;9.81;100.00;97024.16;5052769;28;20089;-61
2023/05/16 05:01:22;;;;;;;63.72;32.63;;;;;;;9.89;100.00;97024.50;5040049;28;20041;-61
2023/05/16 05:03:49;;;;;;;60.85;31.63;;;;;;;9.99;100.00;97017.56;5044237;28;20046;-61
2023/05/16 05:06:15;;;;;;;61.55;33.75;;;;;;;10.14;100.00;97025.00;5042271;28;20044;-62
2023/05/16 05:08:42;;;;;;;57.70;30.40;;;;;;;10.13;100.00;97029.59;5049671;28;20044;-61
2023/05/16 05:11:08;;;;;;;59.97;31.90;;;;;;;10.15;100.00;97029.34;5043081;28;20080;-62
2023/05/16 05:13:35;;;;;;;57.65;30.33;;;;;;;10.18;100.00;97031.53;5046059;28;20049;-62
2023/05/16 05:16:03;;;;;;;54.83;30.52;;;;;;;10.14;100.00;97031.22;5046478;28;20079;-62
2023/05/16 05:18:30;;;;;;;57.83;31.65;;;;;;;10.27;100.00;97032.69;5046838;28;20048;-61
2023/05/16 05:20:57;;;;;;;52.63;30.08;;;;;;;10.31;100.00;97041.09;5043020;28;20090;-62
2023/05/16 05:23:23;;;;;;;51.20;30.27;;;;;;;10.27;100.00;97039.97;5049869;28;20120;-61
2023/05/16 05:25:50;;;;;;;52.72;29.02;;;;;;;10.28;100.00;97050.53;5045553;28;20091;-61
2023/05/16 05:28:16;;;;;;;54.90;30.60;;;;;;;10.25;100.00;97044.84;5044656;28;20122;-61
2023/05/16 05:30:43;;;;;;;50.58;30.15;;;;;;;10.31;100.00;97051.91;5044675;28;20125;-62
2023/05/16 05:33:10;;;;;;;48.25;28.77;;;;;;;10.29;100.00;97043.25;5042301;28;20040;-62
2023/05/16 05:35:37;;;;;;;53.20;28.90;;;;;;;10.26;100.00;97043.75;5041854;28;20041;-61
2023/05/16 05:38:03;;;;;;;51.47;29.55;;;;;;;10.17;100.00;97050.72;5042573;28;20056;-62
2023/05/16 05:40:30;;;;;;;50.97;29.13;;;;;;;10.18;100.00;97042.34;5042445;28;20068;-61
2023/05/16 05:42:56;;;;;;;52.00;29.92;;;;;;;10.13;100.00;97047.69;5041966;28;20052;-62
2023/05/16 05:45:23;;;;;;;50.05;28.73;;;;;;;10.19;100.00;97057.50;5041181;28;20204;-61
2023/05/16 05:47:50;;;;;;;46.78;27.73;;;;;;;10.21;100.00;97054.53;5041846;28;20059;-61
2023/05/16 05:50:16;;;;;;;46.45;27.98;;;;;;;10.20;100.00;97052.88;5040409;28;20098;-61
2023/05/16 05:52:43;;;;;;;45.55;27.33;;;;;;;10.21;100.00;97058.03;5041967;28;20057;-61
2023/05/16 05:55:10;;;;;;;45.25;26.58;;;;;;;10.15;100.00;97059.09;5047870;28;20055;-61
2023/05/16 05:57:36;;;;;;;41.40;25.05;;;;;;;10.19;100.00;97056.69;5053651;28;20518;-62
2023/05/16 06:00:04;;;;;;;44.35;25.42;;;;;;;10.12;100.00;97055.00;5040378;28;20124;-61
2023/05/16 06:02:33;;;;;;;44.70;26.92;;;;;;;10.16;100.00;97055.31;5042319;28;20056;-61
2023/05/16 06:05:00;;;;;;;42.13;25.95;;;;;;;10.22;100.00;97057.00;5039112;28;20080;-61
2023/05/16 06:07:26;;;;;;;47.47;27.17;;;;;;;10.19;100.00;97054.78;5042081;28;20045;-61
2023/05/16 06:09:53;;;;;;;44.97;25.77;;;;;;;10.25;100.00;97058.38;5041573;28;20053;-61
2023/05/16 06:12:20;;;;;;;40.85;24.98;;;;;;;10.26;100.00;97057.28;5044316;28;20033;-61
2023/05/16 06:14:46;;;;;;;43.40;25.70;;;;;;;10.26;100.00;97054.59;5042491;28;20397;-62
2023/05/16 06:17:13;;;;;;;41.05;25.15;;;;;;;10.25;100.00;97052.97;5047534;28;20582;-62
2023/05/16 06:19:39;;;;;;;39.83;24.95;;;;;;;10.28;100.00;97060.53;5040479;28;20516;-62
2023/05/16 06:22:06;;;;;;;41.88;25.95;;;;;;;10.36;100.00;97070.09;5048836;28;20041;-61
2023/05/16 06:24:32;;;;;;;43.50;26.17;;;;;;;10.29;100.00;97064.91;5039863;28;20041;-61
2023/05/16 06:26:59;;;;;;;44.03;26.27;;;;;;;10.25;100.00;97072.69;5039647;28;20052;-61
2023/05/16 06:29:26;;;;;;;46.13;26.65;;;;;;;10.38;100.00;97070.63;5041476;28;20099;-61
2023/05/16 06:31:52;;;;;;;43.30;25.45;;;;;;;10.55;100.00;97073.25;5047448;28;20120;-61
2023/05/16 06:34:22;;;;;;;40.00;25.35;;;;;;;10.56;100.00;97079.47;5052766;28;20040;-61
2023/05/16 06:36:49;;;;;;;41.13;25.48;;;;;;;10.46;100.00;97075.59;5041891;28;20123;-61
2023/05/16 06:39:15;;;;;;;42.03;25.42;;;;;;;10.43;100.00;97078.78;5046283;28;20041;-62
2023/05/16 06:41:42;;;;;;;47.95;26.35;;;;;;;10.52;100.00;97079.19;5037166;28;20072;-62
2023/05/16 06:44:14;;;;;;;39.72;23.05;;;;;;;10.34;100.00;97080.34;5046892;28;20055;-61
2023/05/16 06:46:40;;;;;;;41.70;25.30;;;;;;;10.39;100.00;97083.09;5041630;28;20057;-61
2023/05/16 06:49:07;;;;;;;39.25;24.23;;;;;;;10.43;100.00;97084.22;5043976;28;20129;-62
2023/05/16 06:51:34;;;;;;;34.92;19.48;;;;;;;10.47;100.00;97085.34;5040914;28;20100;-61
2023/05/16 06:54:00;;;;;;;32.55;20.63;;;;;;;10.37;100.00;97082.53;5054324;28;20111;-62
2023/05/16 06:56:30;;;;;;;31.65;20.38;;;;;;;10.39;100.00;97085.78;5041270;28;20049;-62
2023/05/16 06:58:56;;;;;;;30.70;19.80;;;;;;;10.42;100.00;97085.28;5047632;28;20054;-62
2023/05/16 07:01:23;;;;;;;31.13;19.77;;;;;;;10.19;100.00;97089.97;5041528;28;20424;-63
2023/05/16 07:03:50;;;;;;;32.15;19.83;;;;;;;10.30;100.00;97090.06;5042642;28;20049;-64
2023/05/16 07:06:17;;;;;;;29.05;18.90;;;;;;;10.56;100.00;97096.53;5040720;28;20076;-62
2023/05/16 07:08:43;;;;;;;29.42;17.40;;;;;;;10.78;100.00;97092.91;5040027;28;20037;-62
2023/05/16 07:11:10;;;;;;;27.63;17.65;;;;;;;10.63;100.00;97099.84;5038265;28;20037;-60
2023/05/16 07:13:37;;;;;;;26.83;16.58;;;;;;;10.57;100.00;97087.34;5038947;28;20060;-59
2023/05/16 07:16:04;;;;;;;25.08;16.13;;;;;;;10.65;100.00;97086.84;5042803;28;20533;-62
2023/05/16 07:18:30;;;;;;;28.10;17.25;;;;;;;10.78;100.00;97101.03;5039511;28;20049;-61
2023/05/16 07:20:57;;;;;;;27.88;16.90;;;;;;;11.05;100.00;97100.94;5042298;28;20045;-60
2023/05/16 07:23:24;;;;;;;26.55;16.05;;;;;;;11.15;100.00;97099.34;5044029;28;20051;-61
2023/05/16 07:25:52;;;;;;;27.42;16.90;;;;;;;10.90;100.00;97101.66;5059353;28;20048;-59
2023/05/16 07:28:18;;;;;;;29.30;17.08;;;;;;;10.83;100.00;97111.88;5040120;28;20500;-61
2023/05/16 07:30:45;;;;;;;30.02;17.60;;;;;;;10.84;100.00;97108.09;5049112;28;20048;-61
2023/05/16 07:33:12;;;;;;;25.38;16.65;;;;;;;10.44;100.00;97112.09;5043052;28;20056;-61
2023/05/16 07:35:39;;;;;;;26.20;16.52;;;;;;;10.19;100.00;97108.91;5044398;28;20411;-61
2023/05/16 07:38:05;;;;;;;29.05;17.38;;;;;;;10.13;100.00;97116.16;5041804;28;20126;-62
2023/05/16 07:40:32;;;;;;;28.63;16.42;;;;;;;10.07;100.00;97119.06;5048962;28;20053;-61
2023/05/16 07:42:58;;;;;;;27.67;16.33;;;;;;;9.95;100.00;97111.91;5046279;28;20049;-61
2023/05/16 07:45:25;;;;;;;25.45;15.13;;;;;;;9.99;100.00;97126.56;5041818;28;20052;-62
2023/05/16 07:47:52;;;;;;;23.15;14.40;;;;;;;9.78;100.00;97122.81;5039429;28;20037;-60
2023/05/16 07:50:18;;;;;;;23.23;14.20;;;;;;;9.71;100.00;97127.59;5045142;28;20052;-61
2023/05/16 07:52:45;;;;;;;24.70;14.25;;;;;;;9.83;100.00;97138.28;5040497;28;20049;-60
2023/05/16 07:55:12;;;;;;;25.80;14.75;;;;;;;9.78;100.00;97127.41;5043533;28;20044;-60
2023/05/16 07:57:39;;;;;;;22.20;13.07;;;;;;;9.63;100.00;97135.06;5043340;28;20037;-61
2023/05/16 08:00:06;;;;;;;25.50;14.32;;;;;;;9.74;100.00;97132.50;5047361;28;20040;-62
2023/05/16 08:02:37;;;;;;;;;;;;;;;9.83;100.00;97132.88;5048926;28;20049;-61
2023/05/16 08:05:04;;;;;;;22.75;13.27;;;;;;;9.84;100.00;97143.44;5042081;28;19920;-62
2023/05/16 08:07:31;;;;;;;24.77;14.82;;;;;;;9.82;100.00;97137.47;5043027;28;20077;-62
2023/05/16 08:09:58;;;;;;;23.50;15.18;;;;;;;9.82;100.00;97137.47;5043151;28;20045;-62
2023/05/16 08:12:26;;;;;;;24.73;15.57;;;;;;;9.93;100.00;97143.81;5041544;28;20102;-62
2023/05/16 08:14:52;;;;;;;31.63;17.88;;;;;;;9.89;100.00;97138.06;5040202;28;20037;-62
2023/05/16 08:17:19;;;;;;;31.80;16.33;;;;;;;9.85;100.00;97134.25;5043312;28;20048;-63
2023/05/16 08:19:45;;;;;;;32.45;17.48;;;;;;;9.84;100.00;97145.34;5048283;28;20044;-63
2023/05/16 08:22:12;;;;;;;31.88;18.67;;;;;;;9.88;100.00;97141.06;5036322;28;20045;-62
2023/05/16 08:24:38;;;;;;;32.22;18.88;;;;;;;9.75;100.00;97139.53;5041496;28;20037;-61
2023/05/16 08:27:05;;;;;;;35.97;17.40;;;;;;;9.85;100.00;97141.56;5034768;28;20049;-62
2023/05/16 08:29:32;;;;;;;31.50;18.40;;;;;;;9.82;100.00;97144.75;5040564;28;20157;-61
2023/05/16 08:31:58;;;;;;;32.70;18.17;;;;;;;9.91;100.00;97142.44;5047004;28;20459;-62
2023/05/16 08:34:25;;;;;;;31.65;17.80;;;;;;;9.96;100.00;97146.03;5047462;28;20103;-61
2023/05/16 08:36:53;;;;;;;31.20;17.83;;;;;;;9.79;100.00;97131.72;5055274;28;20049;-60
2023/05/16 08:39:19;;;;;;;31.42;18.40;;;;;;;9.93;100.00;97142.97;5036536;28;20044;-61
2023/05/16 08:41:46;;;;;;;36.70;17.55;;;;;;;9.94;100.00;97136.50;5048365;28;20057;-61
2023/05/16 08:44:20;;;;;;;32.30;16.58;;;;;;;10.09;100.00;97139.38;5057380;28;20041;-61
2023/05/16 08:46:51;;;;;;;32.03;19.27;;;;;;;10.20;100.00;97139.47;5062076;28;20072;-61
2023/05/16 08:49:21;;;;;;;29.10;16.17;;;;;;;10.21;100.00;97141.94;5048694;28;20600;-61
2023/05/16 08:51:50;;;;;;;31.10;18.10;;;;;;;10.43;100.00;97148.38;5044085;28;20102;-60
2023/05/16 08:54:17;;;;;;;28.52;16.20;;;;;;;10.50;100.00;97143.56;5053589;28;20119;-61
2023/05/16 08:56:44;;;;;;;33.20;17.42;;;;;;;10.63;100.00;97145.06;5049935;28;20505;-62
2023/05/16 08:59:11;;;;;;;33.35;17.50;;;;;;;10.73;100.00;97144.31;5051648;28;20761;-61
2023/05/16 09:01:38;;;;;;;29.88;16.75;;;;;;;11.04;100.00;97137.25;5056381;28;20072;-62
2023/05/16 09:04:08;;;;;;;29.02;16.45;;;;;;;11.12;100.00;97145.94;5046665;28;20419;-62
2023/05/16 09:06:37;;;;;;;27.13;15.73;;;;;;;11.08;100.00;97145.66;5059017;28;20044;-62
2023/05/16 09:09:06;;;;;;;26.13;16.00;;;;;;;11.13;100.00;97145.69;5053294;28;20527;-62
2023/05/16 09:11:34;;;;;;;26.00;15.63;;;;;;;11.03;100.00;97148.34;5044479;28;20090;-62
2023/05/16 09:14:04;;;;;;;25.25;15.57;;;;;;;11.24;100.00;97151.19;5050883;28;20619;-62
2023/05/16 09:16:30;;;;;;;26.88;14.75;;;;;;;11.36;100.00;97148.25;5048061;28;20049;-62
2023/05/16 09:18:59;;;;;;;24.35;15.00;;;;;;;11.35;100.00;97139.31;5048948;28;20052;-62
2023/05/16 09:21:28;;;;;;;19.95;13.35;;;;;;;11.38;100.00;97155.06;5051841;28;20655;-62
2023/05/16 09:23:55;;;;;;;27.92;14.63;;;;;;;11.15;100.00;97153.56;5048352;28;20045;-61
2023/05/16 09:26:21;;;;;;;20.75;13.63;;;;;;;11.11;100.00;97155.16;5042475;28;20099;-62
2023/05/16 09:28:52;;;;;;;25.05;14.50;;;;;;;11.01;100.00;97161.31;5040861;28;20514;-62
2023/05/16 09:31:29;;;;;;;22.13;14.27;;;;;;;10.88;100.00;97152.56;5043345;28;20041;-61
2023/05/16 09:33:56;;;;;;;22.83;14.45;;;;;;;10.66;100.00;97158.09;5045248;28;20055;-61
2023/05/16 09:36:22;;;;;;;22.60;13.82;;;;;;;10.69;100.00;97159.44;5049420;28;20072;-62
2023/05/16 09:38:50;;;;;;;24.38;13.15;;;;;;;10.72;100.00;97165.16;5040470;28;20128;-62
2023/05/16 09:41:17;;;;;;;24.25;13.93;;;;;;;10.77;100.00;97167.09;5028486;28;20658;-60
2023/05/16 09:43:44;;;;;;;22.90;12.18;;;;;;;10.80;100.00;97161.19;5051585;28;20063;-61
2023/05/16 09:46:14;;;;;;;20.15;12.10;;;;;;;10.83;100.00;97157.94;5050795;28;20785;-62
2023/05/16 09:48:44;;;;;;;18.73;11.43;;;;;;;10.86;100.00;97157.44;5043762;28;20123;-61
2023/05/16 09:51:12;;;;;;;19.45;11.40;;;;;;;10.73;100.00;97152.44;5050180;28;20048;-62
2023/05/16 09:53:40;;;;;;;16.00;9.55;;;;;;;10.79;100.00;97152.22;5057315;28;20071;-62
2023/05/16 09:56:11;;;;;;;18.60;11.00;;;;;;;11.03;100.00;97154.56;5051403;28;20120;-62
2023/05/16 09:58:40;;;;;;;20.02;11.00;;;;;;;11.30;100.00;97160.97;5052214;28;20045;-62
2023/05/16 10:01:08;;;;;;;16.73;10.32;;;;;;;11.51;100.00;97155.66;5049742;28;20049;-62
2023/05/16 10:03:37;;;;;;;15.43;10.45;;;;;;;11.32;100.00;97162.34;5045253;28;20596;-62
2023/05/16 10:06:05;;;;;;;15.13;9.52;;;;;;;11.39;100.00;97156.69;5049135;28;20515;-61
2023/05/16 10:08:35;;;;;;;14.48;9.73;;;;;;;11.39;100.00;97162.09;5044536;28;20044;-62
2023/05/16 10:11:05;;;;;;;13.05;7.90;;;;;;;11.09;100.00;97158.13;5057262;28;20629;-61
2023/05/16 10:13:34;;;;;;;13.70;8.35;;;;;;;11.15;100.00;97165.22;5041971;28;20060;-62
2023/05/16 10:16:06;;;;;;;11.95;7.72;;;;;;;11.17;100.00;97163.06;5045912;28;20571;-62
2023/05/16 10:18:34;;;;;;;11.75;7.57;;;;;;;11.16;100.00;97153.31;5042206;28;20044;-62
2023/05/16 10:21:05;;;;;;;13.93;8.32;;;;;;;11.41;100.00;97156.41;5047844;28;20044;-61
2023/05/16 10:23:40;;;;;;;11.85;7.88;;;;;;;11.34;100.00;97166.66;5039325;28;20488;-62
2023/05/16 10:26:08;;;;;;;12.13;6.95;;;;;;;11.27;100.00;97167.72;5041911;28;20045;-61
2023/05/16 10:28:35;;;;;;;11.63;7.43;;;;;;;11.17;100.00;97170.38;5042161;28;20037;-62
2023/05/16 10:31:01;;;;;;;11.95;7.28;;;;;;;11.16;100.00;97161.44;5045957;28;20082;-62
2023/05/16 10:33:28;;;;;;;9.20;6.57;;;;;;;11.34;100.00;97159.38;5044615;28;20071;-62
2023/05/16 10:35:55;;;;;;;11.20;6.78;;;;;;;11.36;100.00;97159.09;5045467;28;20063;-61
2023/05/16 10:38:23;;;;;;;10.02;5.97;;;;;;;11.45;100.00;97162.94;5046059;28;20086;-65
2023/05/16 10:40:50;;;;;;;11.63;6.80;;;;;;;11.73;100.00;97166.34;5046257;28;20055;-62
2023/05/16 10:43:29;;;;;;;10.05;5.93;;;;;;;11.63;100.00;97166.28;5050827;28;20047;-63
2023/05/16 10:46:17;;;;;;;9.27;6.30;;;;;;;11.50;100.00;97164.88;5038332;28;20055;-64
2023/05/16 10:48:43;;;;;;;22.55;6.00;;;;;;;11.54;100.00;97157.84;5044454;28;20765;-63
2023/05/16 10:51:36;;;;;;;7.65;5.38;;;;;;;11.35;100.00;97169.13;5054638;28;20041;-62
2023/05/16 10:54:09;;;;;;;9.38;5.68;;;;;;;11.09;100.00;97162.75;5042322;28;20567;-62
2023/05/16 10:56:36;;;;;;;8.80;4.95;;;;;;;10.97;100.00;97171.03;5044897;28;20045;-62
2023/05/16 10:59:03;;;;;;;10.13;6.50;;;;;;;10.86;100.00;97172.84;5046923;28;20040;-62
2023/05/16 11:01:34;;;;;;;10.48;6.85;;;;;;;10.61;100.00;97180.50;5044307;28;20155;-63
2023/05/16 11:04:03;;;;;;;11.57;7.80;;;;;;;10.51;100.00;97178.50;5052784;28;20045;-61
2023/05/16 11:06:40;;;;;;;12.63;7.28;;;;;;;10.42;100.00;97180.03;5051238;28;20087;-62
2023/05/16 11:09:16;;;;;;;12.43;7.30;;;;;;;10.52;100.00;97182.03;5047495;28;20055;-62
2023/05/16 11:11:57;;;;;;;11.13;6.65;;;;;;;10.78;100.00;97174.16;5045203;28;20814;-62
2023/05/16 11:14:24;;;;;;;12.37;7.23;;;;;;;10.87;100.00;97177.22;5046231;28;20131;-63
2023/05/16 11:17:11;;;;;;;12.60;6.90;;;;;;;10.86;100.00;97183.69;5039595;28;20037;-62
2023/05/16 11:19:44;;;;;;;12.65;7.55;;;;;;;10.69;100.00;97181.91;5041728;28;20603;-62